Time;durP1;ratioP1;P1;durP2;ratioP2;P2;SDS_P1;SDS_P2;PMS_P1;PMS_P2;Temp;Humidity;BMP_temperature;BMP_pressure;BME280_temperature;BME280_humidity;BME280_pressure;Samples;Min_cycle;Max_cycle;Signal;HPM_P1;HPM_P2
2021/04/20 00:01:51;;;;;;;10.93;3.38;;;10.40;99.90;;;;;;5048664;28;20121;-75
2021/04/20 00:04:17;;;;;;;7.88;3.35;;;10.50;99.90;;;;;;5049780;28;20365;-75
2021/04/20 00:06:43;;;;;;;8.52;3.45;;;10.50;99.70;;;;;;5048855;28;20060;-75
2021/04/20 00:09:09;;;;;;;8.95;3.33;;;10.50;99.30;;;;;;5050066;28;20033;-75
2021/04/20 00:11:38;;;;;;;11.27;3.50;;;10.40;99.60;;;;;;5048757;28;20053;-75
2021/04/20 00:14:05;;;;;;;7.60;3.60;;;10.50;99.90;;;;;;5048965;28;20056;-75
2021/04/20 00:16:31;;;;;;;6.60;3.53;;;10.40;99.60;;;;;;5047142;28;20039;-75
2021/04/20 00:18:56;;;;;;;8.27;3.53;;;10.30;99.90;;;;;;5047651;28;20041;-75
2021/04/20 00:21:22;;;;;;;11.70;3.55;;;10.30;99.90;;;;;;5048760;28;20020;-75
2021/04/20 00:23:47;;;;;;;7.55;3.20;;;10.20;99.90;;;;;;5048847;28;20480;-75
2021/04/20 00:26:13;;;;;;;8.95;3.78;;;10.10;99.90;;;;;;5048897;28;20033;-75
2021/04/20 00:28:38;;;;;;;17.95;3.88;;;10.10;99.90;;;;;;5048771;28;20090;-75
2021/04/20 00:31:04;;;;;;;5.68;3.53;;;10.10;99.90;;;;;;5047894;28;20472;-75
2021/04/20 00:33:29;;;;;;;9.23;3.97;;;10.00;99.90;;;;;;5048755;28;20103;-75
2021/04/20 00:35:55;;;;;;;9.82;3.58;;;9.90;99.90;;;;;;5049238;28;20111;-75
2021/04/20 00:38:20;;;;;;;5.65;3.15;;;9.80;99.90;;;;;;5049214;28;20067;-75
2021/04/20 00:40:46;;;;;;;8.40;3.95;;;9.70;99.90;;;;;;5048758;28;20024;-75
2021/04/20 00:43:11;;;;;;;9.07;3.53;;;9.60;99.90;;;;;;5048309;28;20074;-75
2021/04/20 00:45:39;;;;;;;7.88;3.42;;;9.50;99.90;;;;;;5048194;28;20040;-75
2021/04/20 00:48:05;;;;;;;6.88;3.90;;;9.60;99.90;;;;;;5048304;28;20036;-75
2021/04/20 00:50:37;;;;;;;8.07;3.50;;;9.60;99.90;;;;;;5049264;28;20024;-75
2021/04/20 00:53:03;;;;;;;6.70;3.67;;;9.60;99.90;;;;;;5048370;28;20053;-75
2021/04/20 00:55:29;;;;;;;7.05;3.63;;;9.60;99.90;;;;;;5030055;28;20040;-76
2021/04/20 00:57:54;;;;;;;10.30;3.92;;;9.50;99.90;;;;;;5048167;28;20020;-75
2021/04/20 01:00:23;;;;;;;8.90;3.28;;;9.40;99.90;;;;;;5048607;28;20033;-75
2021/04/20 01:02:50;;;;;;;7.20;3.63;;;9.40;99.90;;;;;;5048298;28;20120;-75
2021/04/20 01:05:19;;;;;;;12.45;3.85;;;9.30;99.90;;;;;;5048224;28;20111;-75
2021/04/20 01:07:45;;;;;;;11.75;4.07;;;9.40;99.90;;;;;;5047628;28;20029;-75
2021/04/20 01:10:12;;;;;;;10.05;3.78;;;9.40;99.90;;;;;;5048634;28;20045;-75
2021/04/20 01:12:39;;;;;;;9.48;3.72;;;9.40;99.90;;;;;;5048807;28;20074;-75
2021/04/20 01:15:07;;;;;;;8.50;3.50;;;9.40;99.90;;;;;;5047959;28;20029;-75
2021/04/20 01:17:33;;;;;;;8.43;3.63;;;9.20;99.90;;;;;;5047935;28;20021;-75
2021/04/20 01:20:00;;;;;;;10.82;4.28;;;9.20;99.90;;;;;;5048763;28;20033;-75
2021/04/20 01:22:29;;;;;;;8.35;3.53;;;9.10;99.90;;;;;;5047109;28;20025;-75
2021/04/20 01:24:54;;;;;;;15.07;3.63;;;9.00;99.90;;;;;;5048090;28;20040;-75
2021/04/20 01:27:23;;;;;;;10.10;3.58;;;8.90;99.90;;;;;;5048213;28;20025;-75
2021/04/20 01:29:52;;;;;;;9.05;3.80;;;8.90;99.90;;;;;;5046614;28;20594;-75
2021/04/20 01:32:18;;;;;;;7.07;3.88;;;9.00;99.90;;;;;;5048282;28;20043;-75
2021/04/20 01:34:43;;;;;;;10.23;3.97;;;8.90;99.90;;;;;;5053492;28;20104;-75
2021/04/20 01:37:09;;;;;;;8.57;3.72;;;8.70;99.90;;;;;;5048470;28;20033;-75
2021/04/20 01:39:46;;;;;;;10.75;3.92;;;8.70;99.90;;;;;;5048443;28;20075;-75
2021/04/20 01:42:13;;;;;;;8.57;3.22;;;8.60;99.90;;;;;;5049122;28;20029;-75
2021/04/20 01:44:40;;;;;;;7.80;3.78;;;8.70;99.90;;;;;;5050014;28;20518;-75
2021/04/20 01:49:42;;;;;;;10.73;4.10;;;8.80;99.90;;;;;;5497139;23;20438;-75
2021/04/20 01:52:07;;;;;;;8.90;3.70;;;8.70;99.90;;;;;;5004620;28;20037;-75
2021/04/20 01:54:33;;;;;;;5.63;3.63;;;8.60;99.90;;;;;;5000342;28;20030;-74
2021/04/20 01:57:01;;;;;;;6.60;3.40;;;8.30;99.90;;;;;;5008755;28;20619;-75
2021/04/20 01:59:27;;;;;;;6.68;3.28;;;8.30;99.90;;;;;;5008100;28;20022;-75
2021/04/20 02:01:54;;;;;;;9.60;3.67;;;8.30;99.90;;;;;;5006676;28;20049;-74
2021/04/20 02:04:19;;;;;;;8.88;3.88;;;8.10;99.90;;;;;;5002561;28;20033;-74
2021/04/20 02:06:46;;;;;;;8.68;3.75;;;8.10;99.90;;;;;;5004044;28;20038;-75
2021/04/20 02:09:11;;;;;;;7.15;3.70;;;8.10;99.90;;;;;;5006455;28;20053;-74
2021/04/20 02:11:37;;;;;;;8.88;3.58;;;8.20;99.90;;;;;;5008192;28;20054;-74
2021/04/20 02:14:03;;;;;;;10.57;3.60;;;8.10;99.90;;;;;;5003966;28;20081;-74
2021/04/20 02:16:29;;;;;;;8.45;3.80;;;8.10;99.90;;;;;;5010610;28;20490;-74
2021/04/20 02:18:58;;;;;;;6.65;3.50;;;8.00;99.90;;;;;;5004419;28;20057;-74
2021/04/20 02:21:24;;;;;;;7.20;3.80;;;8.00;99.90;;;;;;5009260;28;20030;-75
2021/04/20 02:23:51;;;;;;;6.65;3.53;;;7.80;99.90;;;;;;5009180;28;20030;-74
2021/04/20 02:26:30;;;;;;;7.07;3.58;;;7.80;99.90;;;;;;5010593;28;20508;-74
2021/04/20 02:28:57;;;;;;;7.18;3.58;;;7.80;99.90;;;;;;4997140;28;20085;-74
2021/04/20 02:31:22;;;;;;;6.55;3.33;;;7.80;99.90;;;;;;5011439;28;20052;-74
2021/04/20 02:33:49;;;;;;;10.63;4.07;;;7.80;99.90;;;;;;5008692;28;20511;-75
2021/04/20 02:36:15;;;;;;;9.45;3.85;;;7.70;99.90;;;;;;4998122;28;20061;-75
2021/04/20 02:38:45;;;;;;;9.82;3.90;;;7.80;99.90;;;;;;5003682;28;20072;-75
2021/04/20 02:41:14;;;;;;;8.23;4.25;;;7.90;99.90;;;;;;5010655;28;20034;-75
2021/04/20 02:43:40;;;;;;;12.40;4.15;;;7.70;99.90;;;;;;5010474;28;20484;-75
2021/04/20 02:46:05;;;;;;;11.10;3.92;;;7.70;99.90;;;;;;5006525;28;20031;-75
2021/04/20 02:48:31;;;;;;;8.38;3.80;;;7.60;99.90;;;;;;5015805;28;20026;-74
2021/04/20 02:50:57;;;;;;;8.07;3.70;;;7.60;99.90;;;;;;5018388;28;20045;-75
2021/04/20 02:53:25;;;;;;;11.27;4.25;;;7.50;99.90;;;;;;5024106;28;20037;-75
2021/04/20 02:55:51;;;;;;;9.07;4.15;;;7.50;99.90;;;;;;5028118;28;20060;-75
2021/04/20 02:58:19;;;;;;;7.30;4.45;;;7.50;99.90;;;;;;5018553;28;20057;-75
2021/04/20 03:00:46;;;;;;;12.43;4.38;;;7.50;99.90;;;;;;5020840;28;20034;-74
2021/04/20 03:03:16;;;;;;;9.80;4.55;;;7.60;99.90;;;;;;5022766;28;20037;-75
2021/04/20 03:05:42;;;;;;;10.27;4.25;;;7.50;99.90;;;;;;5018153;28;20025;-74
2021/04/20 03:08:08;;;;;;;8.07;3.90;;;7.50;99.90;;;;;;5022060;28;20025;-75
2021/04/20 03:10:37;;;;;;;11.48;3.85;;;7.50;99.90;;;;;;5016268;28;20056;-74
2021/04/20 03:13:04;;;;;;;7.22;4.05;;;7.50;99.90;;;;;;5022476;28;20384;-74
2021/04/20 03:15:30;;;;;;;11.65;4.75;;;7.40;99.90;;;;;;5021668;28;20029;-74
2021/04/20 03:17:56;;;;;;;8.15;3.90;;;7.40;99.90;;;;;;5018555;28;20037;-75
2021/04/20 03:20:24;;;;;;;8.07;3.97;;;7.20;99.90;;;;;;5002867;28;20022;-75
2021/04/20 03:22:51;;;;;;;8.15;4.07;;;7.30;99.90;;;;;;5017189;28;20408;-75
2021/04/20 03:25:22;;;;;;;7.18;4.00;;;7.20;99.90;;;;;;5020185;28;20026;-75
2021/04/20 03:27:52;;;;;;;9.55;4.15;;;7.20;99.90;;;;;;5007714;28;20610;-75
2021/04/20 03:30:20;;;;;;;9.35;4.13;;;7.30;99.90;;;;;;5027623;28;20079;-75
2021/04/20 03:32:59;;;;;;;11.45;4.30;;;7.20;99.90;;;;;;5020087;28;20036;-75
2021/04/20 03:35:39;;;;;;;9.43;4.43;;;7.20;99.90;;;;;;5027059;28;20156;-75
2021/04/20 03:38:23;;;;;;;7.18;3.95;;;7.10;99.90;;;;;;5015785;28;20112;-75
2021/04/20 03:40:57;;;;;;;8.35;4.18;;;7.00;99.90;;;;;;5024194;28;20113;-75
2021/04/20 03:43:26;;;;;;;9.93;4.40;;;7.00;99.90;;;;;;5028934;28;20091;-75
2021/04/20 03:46:09;;;;;;;8.70;3.85;;;6.90;99.90;;;;;;5027095;28;20065;-75
2021/04/20 03:48:39;;;;;;;13.88;4.65;;;6.80;99.90;;;;;;5028677;28;20076;-75
2021/04/20 03:51:09;;;;;;;9.90;4.22;;;6.90;99.90;;;;;;5028408;28;20056;-74
2021/04/20 03:53:36;;;;;;;12.25;4.47;;;6.80;99.90;;;;;;5013138;28;20032;-76
2021/04/20 03:56:03;;;;;;;12.20;4.35;;;6.80;99.90;;;;;;5026259;28;20394;-75
2021/04/20 03:58:31;;;;;;;12.25;4.50;;;6.80;99.90;;;;;;5023583;28;21814;-75
2021/04/20 04:01:02;;;;;;;8.23;4.13;;;6.80;99.90;;;;;;5028208;28;20622;-75
2021/04/20 04:03:28;;;;;;;7.85;4.38;;;6.70;99.90;;;;;;5022743;28;20699;-74
2021/04/20 04:05:55;;;;;;;7.35;4.47;;;6.70;99.90;;;;;;5022571;28;20522;-75
2021/04/20 04:08:22;;;;;;;8.00;4.78;;;6.80;99.90;;;;;;5023803;28;20025;-75
2021/04/20 04:10:52;;;;;;;13.70;4.32;;;6.70;99.90;;;;;;5019185;28;20036;-75
2021/04/20 04:13:22;;;;;;;11.68;4.93;;;6.80;99.90;;;;;;5013701;28;20475;-75
2021/04/20 04:15:48;;;;;;;9.45;4.60;;;6.80;99.90;;;;;;5027146;28;20044;-75
2021/04/20 04:18:15;;;;;;;13.23;5.32;;;6.80;99.90;;;;;;5002013;28;20028;-75
2021/04/20 04:20:41;;;;;;;12.55;5.07;;;6.80;99.90;;;;;;5014425;28;20477;-75
2021/04/20 04:23:14;;;;;;;12.85;5.30;;;6.90;99.90;;;;;;5025404;28;20079;-75
2021/04/20 04:25:47;;;;;;;10.48;5.13;;;6.80;99.90;;;;;;5019146;28;20037;-75
2021/04/20 04:28:14;;;;;;;10.60;4.85;;;7.00;99.90;;;;;;5022608;28;20041;-75
2021/04/20 04:30:39;;;;;;;8.55;4.57;;;7.00;99.90;;;;;;5022485;28;20083;-74
2021/04/20 04:33:05;;;;;;;13.27;5.32;;;6.90;99.90;;;;;;5012749;28;20025;-75
2021/04/20 04:35:33;;;;;;;11.38;5.38;;;6.80;99.90;;;;;;5023341;28;20052;-75
2021/04/20 04:38:00;;;;;;;13.70;5.32;;;6.80;99.90;;;;;;5016452;28;20492;-75
2021/04/20 04:40:27;;;;;;;14.00;5.00;;;6.80;99.90;;;;;;5023666;28;20025;-75
2021/04/20 04:42:52;;;;;;;12.65;4.75;;;6.90;99.90;;;;;;5019733;28;20052;-75
2021/04/20 04:45:18;;;;;;;12.18;5.22;;;6.90;99.90;;;;;;5025308;28;20108;-75
2021/04/20 04:47:44;;;;;;;10.38;5.03;;;7.00;99.90;;;;;;5027644;28;20049;-75
2021/04/20 04:50:10;;;;;;;16.95;5.95;;;7.00;99.90;;;;;;5010595;28;20452;-75
2021/04/20 04:52:38;;;;;;;13.95;5.05;;;6.90;99.90;;;;;;5017021;28;20116;-74
2021/04/20 04:55:05;;;;;;;10.10;5.75;;;7.00;99.90;;;;;;5018244;28;20036;-74
2021/04/20 04:57:31;;;;;;;12.88;5.10;;;7.10;99.90;;;;;;5017948;28;20032;-74
2021/04/20 05:00:07;;;;;;;13.15;5.60;;;7.00;99.90;;;;;;5023544;28;20034;-74
2021/04/20 05:02:39;;;;;;;15.07;5.35;;;7.10;99.90;;;;;;5020144;28;20044;-75
2021/04/20 05:05:07;;;;;;;9.52;5.15;;;7.10;99.90;;;;;;5015157;28;20079;-73
2021/04/20 05:07:33;;;;;;;14.45;6.40;;;7.10;99.90;;;;;;5016993;28;20515;-73
2021/04/20 05:10:00;;;;;;;12.15;5.75;;;7.20;99.90;;;;;;5013901;28;20037;-73
2021/04/20 05:12:26;;;;;;;12.05;5.53;;;7.20;99.90;;;;;;5015340;28;20652;-73
2021/04/20 05:14:52;;;;;;;10.90;5.03;;;7.20;99.90;;;;;;5024585;28;20095;-75
2021/04/20 05:17:21;;;;;;;14.63;6.22;;;7.30;99.90;;;;;;5021522;28;20026;-76
2021/04/20 05:19:48;;;;;;;11.40;5.35;;;7.40;99.90;;;;;;5005442;28;20029;-74
2021/04/20 05:22:14;;;;;;;14.65;5.85;;;7.30;99.90;;;;;;5020253;28;20104;-73
2021/04/20 05:24:40;;;;;;;13.43;5.38;;;7.30;99.90;;;;;;5020966;28;20114;-73
2021/04/20 05:27:15;;;;;;;15.88;5.93;;;7.30;99.90;;;;;;5016646;28;20022;-73
2021/04/20 05:29:40;;;;;;;15.27;5.65;;;7.30;99.90;;;;;;5023816;28;20021;-73
2021/04/20 05:32:09;;;;;;;12.77;5.80;;;7.40;99.90;;;;;;5027979;28;20487;-73
2021/04/20 05:34:35;;;;;;;10.85;5.68;;;7.40;99.90;;;;;;5022730;28;20391;-73
2021/04/20 05:37:01;;;;;;;13.27;5.90;;;7.40;99.90;;;;;;5024625;28;20033;-73
2021/04/20 05:39:27;;;;;;;12.05;6.07;;;7.50;99.90;;;;;;5014465;28;20689;-75
2021/04/20 05:41:52;;;;;;;12.93;5.53;;;7.40;99.90;;;;;;5026041;28;20057;-73
2021/04/20 05:44:17;;;;;;;12.45;5.80;;;7.50;99.90;;;;;;5021099;28;20448;-73
2021/04/20 05:46:46;;;;;;;17.42;6.00;;;7.60;99.90;;;;;;5020738;28;20076;-73
2021/04/20 05:49:13;;;;;;;18.17;5.65;;;7.60;99.90;;;;;;5008867;28;20093;-73
2021/04/20 05:51:42;;;;;;;12.60;6.32;;;7.80;99.90;;;;;;5020865;28;20046;-73
2021/04/20 05:54:08;;;;;;;15.07;6.43;;;7.80;99.90;;;;;;5027160;28;20387;-73
2021/04/20 05:56:34;;;;;;;14.02;6.20;;;7.70;99.90;;;;;;5015008;28;20030;-73
2021/04/20 05:59:02;;;;;;;14.60;6.13;;;7.70;99.90;;;;;;5025982;28;20040;-73
2021/04/20 06:01:28;;;;;;;13.88;6.70;;;7.80;99.90;;;;;;5014677;28;20302;-73
2021/04/20 06:03:55;;;;;;;13.63;6.03;;;7.80;99.90;;;;;;5009003;28;20022;-73
2021/04/20 06:06:23;;;;;;;11.68;6.13;;;7.80;99.90;;;;;;5025809;28;20053;-73
2021/04/20 06:08:52;;;;;;;14.90;6.20;;;8.00;99.90;;;;;;5021720;28;20033;-73
2021/04/20 06:11:19;;;;;;;20.38;6.60;;;8.10;99.90;;;;;;5026849;28;20037;-73
2021/04/20 06:13:46;;;;;;;16.17;6.10;;;8.20;99.90;;;;;;5016898;28;20036;-74
2021/04/20 06:16:12;;;;;;;15.55;6.70;;;8.30;99.90;;;;;;5011026;28;20036;-73
2021/04/20 06:18:39;;;;;;;18.42;6.80;;;8.30;99.90;;;;;;5002746;28;20068;-73
2021/04/20 06:21:06;;;;;;;10.05;5.78;;;8.40;99.90;;;;;;5018519;28;20033;-74
2021/04/20 06:23:32;;;;;;;12.60;5.72;;;8.40;99.90;;;;;;5022838;28;20029;-75
2021/04/20 06:26:00;;;;;;;12.15;6.40;;;8.50;99.90;;;;;;5013938;28;20460;-74
2021/04/20 06:28:27;;;;;;;14.25;6.90;;;8.60;99.90;;;;;;5017421;28;20022;-73
2021/04/20 06:30:57;;;;;;;16.95;5.68;;;8.60;99.90;;;;;;5024643;28;20032;-73
2021/04/20 06:33:24;;;;;;;10.68;5.97;;;8.60;99.90;;;;;;5023164;28;20030;-73
2021/04/20 06:35:54;;;;;;;15.75;6.07;;;8.70;99.90;;;;;;5030576;28;20025;-74
2021/04/20 06:38:21;;;;;;;14.10;6.32;;;8.70;99.90;;;;;;5030942;28;20353;-74
2021/04/20 06:40:49;;;;;;;14.45;7.18;;;8.80;99.90;;;;;;5026149;28;20477;-74
2021/04/20 06:43:20;;;;;;;15.05;7.15;;;8.80;99.90;;;;;;5016534;28;20535;-74
2021/04/20 06:45:52;;;;;;;17.20;6.53;;;8.90;99.90;;;;;;5016166;28;20487;-74
2021/04/20 06:48:51;;;;;;;17.30;6.75;;;9.00;99.90;;;;;;5023829;28;20033;-74
2021/04/20 06:51:21;;;;;;;13.60;7.22;;;9.10;99.90;;;;;;5024262;28;20518;-74
2021/04/20 06:53:51;;;;;;;23.42;7.25;;;9.10;99.90;;;;;;5018259;28;20492;-74
2021/04/20 06:56:50;;;;;;;12.18;6.65;;;9.20;99.90;;;;;;5018081;28;20033;-74
2021/04/20 06:59:18;;;;;;;15.40;7.15;;;9.30;99.90;;;;;;5026404;28;20026;-74
2021/04/20 07:01:48;;;;;;;15.40;6.97;;;9.20;99.90;;;;;;5024423;28;20697;-73
2021/04/20 07:04:36;;;;;;;22.13;7.60;;;9.30;99.90;;;;;;5022947;28;20465;-73
2021/04/20 07:07:32;;;;;;;13.65;6.57;;;9.50;99.90;;;;;;5022077;28;20113;-73
2021/04/20 07:10:19;;;;;;;17.20;7.18;;;9.60;99.90;;;;;;5027256;28;20433;-73
2021/04/20 07:12:48;;;;;;;12.02;6.38;;;9.60;99.90;;;;;;5020140;28;20037;-73
2021/04/20 07:15:19;;;;;;;17.40;7.45;;;9.60;99.90;;;;;;5020881;28;20032;-73
2021/04/20 07:17:58;;;;;;;20.13;6.95;;;9.70;99.90;;;;;;5026788;28;20044;-74
2021/04/20 07:20:50;;;;;;;13.25;6.97;;;9.80;99.90;;;;;;5018788;28;20034;-73
2021/04/20 07:23:30;;;;;;;12.45;6.50;;;9.90;99.90;;;;;;5027562;28;20036;-73
2021/04/20 07:26:34;;;;;;;16.13;6.33;;;10.00;99.90;;;;;;5019481;28;20475;-73
2021/04/20 07:29:38;;;;;;;15.02;6.68;;;10.20;99.90;;;;;;5023992;28;20369;-73
2021/04/20 07:32:37;;;;;;;13.30;6.30;;;10.30;99.90;;;;;;5018588;28;20104;-74
2021/04/20 07:35:32;;;;;;;15.00;6.90;;;10.40;99.90;;;;;;5015238;28;20498;-73
2021/04/20 07:38:03;;;;;;;12.07;6.25;;;10.60;99.90;;;;;;5026623;28;20033;-73
2021/04/20 07:40:41;;;;;;;11.45;6.20;;;10.70;99.90;;;;;;5026689;28;20117;-73
2021/04/20 07:43:30;;;;;;;14.32;6.63;;;10.80;99.90;;;;;;5017991;28;20781;-72
2021/04/20 07:45:59;;;;;;;12.38;6.10;;;10.80;99.90;;;;;;5021610;28;20124;-73
2021/04/20 07:48:57;;;;;;;14.77;6.20;;;10.90;99.90;;;;;;5021488;28;20028;-73
2021/04/20 07:51:47;;;;;;;16.55;6.55;;;11.00;99.90;;;;;;5003718;28;20049;-73
2021/04/20 07:54:31;;;;;;;13.48;6.18;;;11.00;99.90;;;;;;5018388;28;20042;-73
2021/04/20 07:57:15;;;;;;;19.25;6.72;;;11.00;99.90;;;;;;5016963;28;20437;-73
2021/04/20 07:59:52;;;;;;;13.85;6.45;;;11.10;99.90;;;;;;5020133;28;20039;-73
2021/04/20 08:02:39;;;;;;;13.82;6.22;;;11.20;99.90;;;;;;5023573;28;20129;-73
2021/04/20 08:05:31;;;;;;;16.48;6.35;;;11.30;99.90;;;;;;5022461;28;20042;-73
2021/04/20 08:08:14;;;;;;;15.20;6.38;;;11.50;99.90;;;;;;5017895;28;20029;-73
2021/04/20 08:10:59;;;;;;;15.45;5.80;;;11.60;99.20;;;;;;5021859;28;20116;-73
2021/04/20 08:13:36;;;;;;;11.38;5.75;;;11.70;99.30;;;;;;5019525;28;20032;-74
2021/04/20 08:16:09;;;;;;;12.82;5.80;;;11.80;99.30;;;;;;5022325;28;20075;-74
2021/04/20 08:19:00;;;;;;;14.88;6.38;;;11.90;96.50;;;;;;5027316;28;20104;-74
2021/04/20 08:21:29;;;;;;;12.23;5.63;;;11.90;97.10;;;;;;5009127;28;20029;-74
2021/04/20 08:23:56;;;;;;;13.32;5.75;;;12.10;96.20;;;;;;5020983;28;20025;-73
2021/04/20 08:26:35;;;;;;;12.45;6.05;;;12.10;93.10;;;;;;5027833;28;20036;-72
2021/04/20 08:29:06;;;;;;;17.75;6.45;;;12.10;92.70;;;;;;5023670;28;20357;-73
2021/04/20 08:31:51;;;;;;;12.68;5.45;;;12.20;94.80;;;;;;5018788;28;20025;-73
2021/04/20 08:34:27;;;;;;;12.30;5.85;;;12.50;94.40;;;;;;5021048;28;20030;-73
2021/04/20 08:37:06;;;;;;;14.27;6.05;;;12.50;92.40;;;;;;5019647;28;20045;-75
2021/04/20 08:39:59;;;;;;;19.15;6.13;;;12.60;93.70;;;;;;5019608;28;20054;-74
2021/04/20 08:42:53;;;;;;;10.95;5.65;;;12.70;93.80;;;;;;5012527;28;20121;-74
2021/04/20 08:45:31;;;;;;;13.90;6.18;;;12.80;93.50;;;;;;5017258;28;20033;-74
2021/04/20 08:48:35;;;;;;;11.73;5.85;;;12.90;91.70;;;;;;5015683;28;20547;-74
2021/04/20 08:51:14;;;;;;;12.48;6.05;;;12.90;90.10;;;;;;5020805;28;20167;-75
2021/04/20 08:54:17;;;;;;;11.68;5.72;;;12.90;90.10;;;;;;5012523;28;20037;-74
2021/04/20 08:56:55;;;;;;;11.48;5.60;;;12.90;91.00;;;;;;5007222;28;20022;-73
2021/04/20 08:59:50;;;;;;;16.20;5.70;;;13.00;90.80;;;;;;5017180;28;20044;-74
2021/04/20 09:02:53;;;;;;;12.30;5.85;;;13.20;88.70;;;;;;5019162;28;20032;-75
2021/04/20 09:05:35;;;;;;;14.48;6.47;;;13.30;91.50;;;;;;5020895;28;20025;-73
2021/04/20 09:08:16;;;;;;;13.07;6.55;;;13.40;91.20;;;;;;5015477;28;20030;-74
2021/04/20 09:10:51;;;;;;;12.82;5.95;;;13.40;90.80;;;;;;5014523;28;20216;-74
2021/04/20 09:13:21;;;;;;;12.00;5.70;;;13.50;90.90;;;;;;5016853;28;20034;-74
2021/04/20 09:15:54;;;;;;;11.10;5.63;;;13.70;92.00;;;;;;5026646;28;20029;-73
2021/04/20 09:18:29;;;;;;;11.13;5.63;;;13.80;91.10;;;;;;5019616;28;20022;-73
2021/04/20 09:21:22;;;;;;;12.25;5.32;;;13.90;89.60;;;;;;5021014;28;20021;-73
2021/04/20 09:23:54;;;;;;;10.40;5.47;;;13.90;90.20;;;;;;5026992;28;20034;-73
2021/04/20 09:26:41;;;;;;;13.55;5.72;;;13.90;85.30;;;;;;5023696;28;20056;-73
2021/04/20 09:29:32;;;;;;;13.57;5.95;;;14.10;84.60;;;;;;5020894;28;20030;-75
2021/04/20 09:32:01;;;;;;;14.65;5.63;;;14.00;86.10;;;;;;4998806;28;20045;-73
2021/04/20 09:34:30;;;;;;;15.90;5.82;;;14.20;87.50;;;;;;5018785;28;20099;-73
2021/04/20 09:36:57;;;;;;;15.45;5.90;;;14.20;85.10;;;;;;5017150;28;20071;-73
2021/04/20 09:39:23;;;;;;;11.75;5.93;;;14.30;84.10;;;;;;5013968;28;20030;-74
2021/04/20 09:41:51;;;;;;;8.18;5.30;;;14.50;87.40;;;;;;5017516;28;20033;-76
2021/04/20 09:44:45;;;;;;;11.85;6.32;;;14.50;82.70;;;;;;5024080;28;20021;-76
2021/04/20 09:47:40;;;;;;;11.65;5.75;;;14.70;85.00;;;;;;5010540;28;20053;-74
2021/04/20 09:50:27;;;;;;;10.85;6.13;;;14.70;79.90;;;;;;5018522;28;20049;-74
2021/04/20 09:53:22;;;;;;;12.80;5.68;;;14.70;81.20;;;;;;5018671;28;20438;-73
2021/04/20 09:56:09;;;;;;;10.70;5.82;;;14.70;79.00;;;;;;5016424;28;20415;-73
2021/04/20 09:58:39;;;;;;;10.45;5.65;;;14.90;84.70;;;;;;5015007;28;20526;-73
2021/04/20 10:01:21;;;;;;;10.80;5.65;;;15.10;78.10;;;;;;5019647;28;20068;-73
2021/04/20 10:04:07;;;;;;;12.68;6.10;;;15.30;80.70;;;;;;5022254;28;21947;-74
2021/04/20 10:07:03;;;;;;;11.70;5.90;;;15.20;78.00;;;;;;5025848;28;20052;-74
2021/04/20 10:09:42;;;;;;;9.02;5.20;;;15.40;78.70;;;;;;5030289;28;20020;-75
2021/04/20 10:12:39;;;;;;;12.30;5.75;;;15.30;73.60;;;;;;5023291;28;20029;-75
2021/04/20 10:15:10;;;;;;;11.85;5.75;;;15.30;76.80;;;;;;5024945;28;20464;-73
2021/04/20 10:18:00;;;;;;;10.65;5.60;;;15.60;77.80;;;;;;5027571;28;20030;-73
2021/04/20 10:20:44;;;;;;;11.80;5.85;;;15.90;79.10;;;;;;5028215;28;20072;-74
2021/04/20 10:23:28;;;;;;;11.32;5.93;;;16.10;77.20;;;;;;5025471;28;20028;-75
2021/04/20 10:26:04;;;;;;;10.82;5.93;;;16.30;74.10;;;;;;5021695;28;20471;-75
2021/04/20 10:28:46;;;;;;;10.10;5.90;;;16.40;72.70;;;;;;5004473;28;20476;-75
2021/04/20 10:31:19;;;;;;;13.63;5.50;;;16.40;72.80;;;;;;5023655;28;20527;-75
2021/04/20 10:33:55;;;;;;;10.55;5.82;;;16.70;75.70;;;;;;5020161;28;20026;-75
2021/04/20 10:36:24;;;;;;;8.80;4.88;;;16.80;78.30;;;;;;5022765;28;20017;-75
2021/04/20 10:38:53;;;;;;;11.35;5.93;;;17.10;72.80;;;;;;5011465;28;20064;-75
2021/04/20 10:41:33;;;;;;;12.85;5.78;;;17.20;73.00;;;;;;5016398;28;20369;-75
2021/04/20 10:44:01;;;;;;;14.98;5.63;;;17.40;69.60;;;;;;5025720;28;20026;-75
2021/04/20 10:46:29;;;;;;;14.35;5.70;;;17.30;68.00;;;;;;5024333;28;20025;-75
2021/04/20 10:48:57;;;;;;;11.05;5.70;;;17.40;69.80;;;;;;5014679;28;20033;-75
2021/04/20 10:51:37;;;;;;;10.68;5.60;;;17.70;70.20;;;;;;5024780;28;20041;-76
2021/04/20 10:54:06;;;;;;;15.73;5.72;;;17.80;66.30;;;;;;5027918;28;20517;-77
2021/04/20 10:56:33;;;;;;;11.10;5.80;;;17.80;67.30;;;;;;5028792;28;20502;-76
2021/04/20 10:59:03;;;;;;;12.20;5.57;;;17.90;64.50;;;;;;5022795;28;20096;-76
2021/04/20 11:01:30;;;;;;;11.18;4.28;;;18.10;68.00;;;;;;5019380;28;20034;-76
2021/04/20 11:04:01;;;;;;;11.73;5.93;;;18.60;70.30;;;;;;5018683;28;20033;-75
2021/04/20 11:06:46;;;;;;;11.48;5.82;;;18.40;64.90;;;;;;5027843;28;20564;-75
2021/04/20 11:09:11;;;;;;;14.80;8.85;;;18.20;68.70;;;;;;5027008;28;20026;-76
2021/04/20 11:11:38;;;;;;;16.50;8.20;;;18.30;64.60;;;;;;5017326;28;20115;-77
2021/04/20 11:14:03;;;;;;;11.10;6.07;;;18.40;65.30;;;;;;5019209;28;20057;-75
2021/04/20 11:16:42;;;;;;;11.57;5.82;;;18.80;65.40;;;;;;5020386;28;20052;-75
2021/04/20 11:19:12;;;;;;;10.00;5.57;;;19.20;64.20;;;;;;5022237;28;20109;-75
2021/04/20 11:21:43;;;;;;;11.85;5.53;;;19.50;63.30;;;;;;5019504;28;20061;-75
2021/04/20 11:24:19;;;;;;;8.17;4.97;;;19.80;58.50;;;;;;5018153;28;20128;-76
2021/04/20 11:26:56;;;;;;;16.40;6.15;;;20.10;63.40;;;;;;5020005;28;20288;-76
2021/04/20 11:29:35;;;;;;;9.57;5.18;;;20.20;59.30;;;;;;5020365;28;20030;-74
2021/04/20 11:32:02;;;;;;;8.20;5.20;;;20.50;61.60;;;;;;5025694;28;20491;-77
2021/04/20 11:34:32;;;;;;;13.98;5.50;;;20.80;58.80;;;;;;5024534;28;20034;-75
2021/04/20 11:37:07;;;;;;;14.32;5.60;;;20.90;56.50;;;;;;5023362;28;20026;-75
2021/04/20 11:39:43;;;;;;;8.88;5.07;;;21.40;58.30;;;;;;5022178;28;20034;-76
2021/04/20 11:42:26;;;;;;;8.93;5.38;;;21.90;55.50;;;;;;5016150;28;20034;-78
2021/04/20 11:45:03;;;;;;;9.90;5.68;;;22.40;54.70;;;;;;5021230;28;20114;-78
2021/04/20 11:47:29;;;;;;;11.07;5.50;;;22.60;52.60;;;;;;5019017;28;20026;-77
2021/04/20 11:50:10;;;;;;;8.25;4.70;;;22.60;52.10;;;;;;5021206;28;20111;-77
2021/04/20 11:52:37;;;;;;;10.68;4.85;;;23.00;54.40;;;;;;5024636;28;20057;-78
2021/04/20 11:55:10;;;;;;;12.82;5.85;;;23.20;53.20;;;;;;5016237;28;20096;-78
2021/04/20 11:57:38;;;;;;;8.73;5.07;;;23.70;50.00;;;;;;5016994;28;20026;-78
2021/04/20 12:00:05;;;;;;;7.90;5.45;;;24.00;52.10;;;;;;5018332;28;20037;-78
2021/04/20 12:02:33;;;;;;;7.75;5.30;;;24.10;50.20;;;;;;5023748;28;20032;-79
2021/04/20 12:05:19;;;;;;;10.85;5.70;;;24.30;49.10;;;;;;5025226;28;20022;-79
2021/04/20 12:07:48;;;;;;;11.05;5.68;;;24.50;48.70;;;;;;5023072;28;20026;-77
2021/04/20 12:10:19;;;;;;;10.70;4.75;;;24.90;47.70;;;;;;5016638;28;20025;-75
2021/04/20 12:12:49;;;;;;;;;;;24.90;45.70;;;;;;5018502;28;20028;-76
2021/04/20 12:15:17;;;;;;;9.82;5.38;;;25.30;45.90;;;;;;5022339;28;20949;-74
2021/04/20 12:17:44;;;;;;;9.05;5.32;;;25.70;47.10;;;;;;5014303;28;20307;-76
2021/04/20 12:20:24;;;;;;;8.45;5.30;;;25.50;47.60;;;;;;5021671;28;20029;-73
2021/04/20 12:23:01;;;;;;;7.32;5.18;;;25.70;44.90;;;;;;5019902;28;20029;-76
2021/04/20 12:25:30;;;;;;;10.65;5.03;;;25.70;45.50;;;;;;5018448;28;20549;-75
2021/04/20 12:27:59;;;;;;;6.75;4.63;;;25.70;43.90;;;;;;5012474;28;20026;-75
2021/04/20 12:30:26;;;;;;;11.63;4.90;;;25.70;46.70;;;;;;5014631;28;20431;-74
2021/04/20 12:32:55;;;;;;;9.07;4.32;;;25.90;45.50;;;;;;5016857;28;20034;-73
2021/04/20 12:35:30;;;;;;;5.70;4.13;;;26.10;43.20;;;;;;5027714;28;20029;-76
2021/04/20 12:38:00;;;;;;;8.25;5.30;;;26.50;42.60;;;;;;5023393;28;20087;-75
2021/04/20 12:40:26;;;;;;;9.27;4.70;;;27.10;42.60;;;;;;5016144;28;20029;-74
2021/04/20 12:43:01;;;;;;;8.98;4.50;;;27.00;41.80;;;;;;5025624;28;20033;-74
2021/04/20 12:45:32;;;;;;;10.52;4.80;;;27.20;42.40;;;;;;5015975;28;20037;-73
2021/04/20 12:47:58;;;;;;;8.32;4.85;;;27.70;39.80;;;;;;5025113;28;20033;-73
2021/04/20 12:50:51;;;;;;;7.25;4.60;;;27.60;41.90;;;;;;5027167;28;20068;-79
2021/04/20 12:53:22;;;;;;;8.10;4.95;;;27.80;40.00;;;;;;5018292;28;20450;-74
2021/04/20 12:55:49;;;;;;;;;;;28.30;38.40;;;;;;5018895;28;20021;-73
2021/04/20 12:58:28;;;;;;;7.03;4.22;;;28.50;36.60;;;;;;5016046;28;19916;-73
2021/04/20 13:01:03;;;;;;;8.10;6.40;;;28.50;37.30;;;;;;5017121;28;20029;-75
2021/04/20 13:03:30;;;;;;;5.97;4.43;;;26.90;38.40;;;;;;5021620;28;20048;-74
2021/04/20 13:05:58;;;;;;;7.55;4.50;;;25.20;39.70;;;;;;5019801;28;20104;-74
2021/04/20 13:08:51;;;;;;;8.20;4.43;;;23.80;40.60;;;;;;5017068;28;20037;-73
2021/04/20 13:11:25;;;;;;;7.80;4.32;;;23.60;42.80;;;;;;5020164;28;20033;-75
2021/04/20 13:13:52;;;;;;;6.93;4.22;;;25.20;42.80;;;;;;5019620;28;20835;-75
2021/04/20 13:16:24;;;;;;;7.25;3.70;;;26.10;40.40;;;;;;4999319;28;20037;-75